createdAt,value
2022-09-21T00:01:16.891Z,100.00
2022-09-21T00:03:44.674Z,100.00
2022-09-21T00:06:14.947Z,100.00
2022-09-21T00:08:42.175Z,100.00
2022-09-21T00:11:12.495Z,100.00
2022-09-21T00:13:38.940Z,100.00
2022-09-21T00:16:07.212Z,100.00
2022-09-21T00:18:34.137Z,100.00
2022-09-21T00:21:00.580Z,100.00
2022-09-21T00:23:27.272Z,100.00
2022-09-21T00:26:04.399Z,100.00
2022-09-21T00:28:30.831Z,100.00
2022-09-21T00:31:03.515Z,100.00
2022-09-21T00:33:30.055Z,100.00
2022-09-21T00:36:04.780Z,100.00
2022-09-21T00:38:31.825Z,100.00
2022-09-21T00:40:58.770Z,100.00
2022-09-21T00:43:25.608Z,100.00
2022-09-21T00:46:15.783Z,100.00
2022-09-21T00:48:42.851Z,100.00
2022-09-21T00:51:09.990Z,100.00
2022-09-21T00:53:38.602Z,100.00
2022-09-21T00:56:06.798Z,100.00
2022-09-21T00:58:44.688Z,100.00
2022-09-21T01:01:12.832Z,100.00
2022-09-21T01:03:40.022Z,100.00
2022-09-21T01:06:06.431Z,100.00
2022-09-21T01:08:35.016Z,100.00
2022-09-21T01:11:20.343Z,100.00
2022-09-21T01:13:58.768Z,100.00
2022-09-21T01:16:47.566Z,100.00
2022-09-21T01:19:52.152Z,100.00
2022-09-21T01:22:24.769Z,100.00
2022-09-21T01:25:14.793Z,100.00
2022-09-21T01:27:57.238Z,100.00
2022-09-21T01:30:24.924Z,100.00
2022-09-21T01:32:59.163Z,100.00
2022-09-21T01:35:45.487Z,100.00
2022-09-21T01:38:19.412Z,100.00
2022-09-21T01:40:58.584Z,100.00
2022-09-21T01:43:29.597Z,100.00
2022-09-21T01:46:02.745Z,100.00
2022-09-21T01:48:35.114Z,100.00
2022-09-21T01:51:06.399Z,100.00
2022-09-21T01:53:44.796Z,100.00
2022-09-21T01:56:19.176Z,100.00
2022-09-21T01:58:52.385Z,100.00
2022-09-21T02:01:23.721Z,100.00
2022-09-21T02:03:58.752Z,100.00
2022-09-21T02:06:28.136Z,100.00
2022-09-21T02:08:55.495Z,100.00
2022-09-21T02:11:22.255Z,100.00
2022-09-21T02:13:52.236Z,100.00
2022-09-21T02:16:33.862Z,100.00
2022-09-21T02:19:11.254Z,100.00
2022-09-21T02:21:48.560Z,100.00
2022-09-21T02:24:34.983Z,100.00
2022-09-21T02:27:26.518Z,100.00
2022-09-21T02:30:16.905Z,100.00
2022-09-21T02:33:08.824Z,100.00
2022-09-21T02:36:05.481Z,100.00
2022-09-21T02:38:37.862Z,100.00
2022-09-21T02:41:26.821Z,100.00
2022-09-21T02:44:06.875Z,100.00
2022-09-21T02:46:43.611Z,100.00
2022-09-21T02:49:19.139Z,100.00
2022-09-21T02:51:52.513Z,100.00
2022-09-21T02:54:25.112Z,100.00
2022-09-21T02:56:53.998Z,100.00
2022-09-21T02:59:23.573Z,100.00
2022-09-21T03:01:51.336Z,100.00
2022-09-21T03:04:18.189Z,100.00
2022-09-21T03:06:44.796Z,100.00
2022-09-21T03:09:11.228Z,100.00
2022-09-21T03:11:37.808Z,100.00
2022-09-21T03:14:08.539Z,100.00
2022-09-21T03:16:36.241Z,100.00
2022-09-21T03:19:02.762Z,100.00
2022-09-21T03:21:29.717Z,100.00
2022-09-21T03:23:56.505Z,100.00
2022-09-21T03:26:22.966Z,100.00
2022-09-21T03:28:50.600Z,100.00
2022-09-21T03:31:17.477Z,100.00
2022-09-21T03:33:44.650Z,100.00
2022-09-21T03:36:11.518Z,100.00
2022-09-21T03:38:38.659Z,100.00
2022-09-21T03:41:05.780Z,100.00
2022-09-21T03:43:32.509Z,100.00
2022-09-21T03:45:59.100Z,100.00
2022-09-21T03:48:25.988Z,100.00
2022-09-21T03:50:52.427Z,100.00
2022-09-21T03:53:18.973Z,100.00
2022-09-21T03:55:45.447Z,100.00
2022-09-21T03:58:12.016Z,100.00
2022-09-21T04:00:39.482Z,100.00
2022-09-21T04:03:06.458Z,100.00
2022-09-21T04:05:32.865Z,100.00
2022-09-21T04:08:02.003Z,100.00
2022-09-21T04:10:29.229Z,100.00
2022-09-21T04:13:02.636Z,100.00
2022-09-21T04:15:29.760Z,100.00
2022-09-21T04:17:56.609Z,100.00
2022-09-21T04:20:23.417Z,100.00
2022-09-21T04:22:51.449Z,100.00
2022-09-21T04:25:21.322Z,100.00
2022-09-21T04:28:13.681Z,100.00
2022-09-21T04:30:40.286Z,100.00
2022-09-21T04:33:07.154Z,100.00
2022-09-21T04:35:33.639Z,100.00
2022-09-21T04:38:00.233Z,100.00
2022-09-21T04:40:28.196Z,100.00
2022-09-21T04:42:55.986Z,100.00
2022-09-21T04:45:23.516Z,100.00
2022-09-21T04:47:50.016Z,100.00
2022-09-21T04:50:16.887Z,100.00
2022-09-21T04:52:43.645Z,100.00
2022-09-21T04:55:10.118Z,100.00
2022-09-21T04:57:36.631Z,100.00
2022-09-21T05:00:08.141Z,100.00
2022-09-21T05:02:34.615Z,100.00
2022-09-21T05:05:01.025Z,100.00
2022-09-21T05:07:28.272Z,100.00
2022-09-21T05:10:05.587Z,100.00
2022-09-21T05:12:33.665Z,100.00
2022-09-21T05:15:00.274Z,100.00
2022-09-21T05:17:26.796Z,100.00
2022-09-21T05:19:53.471Z,100.00
2022-09-21T05:22:21.293Z,100.00
2022-09-21T05:24:47.866Z,100.00
2022-09-21T05:27:14.834Z,100.00
2022-09-21T05:29:41.848Z,100.00
2022-09-21T05:32:45.324Z,100.00
2022-09-21T05:35:42.108Z,100.00
2022-09-21T05:38:19.456Z,100.00
2022-09-21T05:40:50.372Z,100.00
2022-09-21T05:43:17.775Z,100.00
2022-09-21T05:45:48.116Z,100.00
2022-09-21T05:48:42.036Z,100.00
2022-09-21T05:51:34.457Z,100.00
2022-09-21T05:54:28.651Z,100.00
2022-09-21T05:57:11.124Z,100.00
2022-09-21T05:59:55.562Z,100.00
2022-09-21T06:02:26.039Z,100.00
2022-09-21T06:04:56.560Z,100.00
2022-09-21T06:07:23.110Z,100.00
2022-09-21T06:09:50.020Z,100.00
2022-09-21T06:12:16.500Z,100.00
2022-09-21T06:14:43.009Z,100.00
2022-09-21T06:17:09.495Z,100.00
2022-09-21T06:19:35.966Z,100.00
2022-09-21T06:22:02.504Z,100.00
2022-09-21T06:24:29.460Z,100.00
2022-09-21T06:26:56.800Z,100.00
2022-09-21T06:29:24.682Z,100.00
2022-09-21T06:31:51.521Z,100.00
2022-09-21T06:34:18.735Z,100.00
2022-09-21T06:36:46.234Z,100.00
2022-09-21T06:39:13.037Z,100.00
2022-09-21T06:41:39.469Z,100.00
2022-09-21T06:44:09.800Z,100.00
2022-09-21T06:46:36.276Z,100.00
2022-09-21T06:49:05.058Z,100.00
2022-09-21T06:51:31.552Z,100.00
2022-09-21T06:53:58.992Z,100.00
2022-09-21T06:56:26.122Z,100.00
2022-09-21T06:58:52.734Z,100.00
2022-09-21T07:01:19.822Z,100.00
2022-09-21T07:03:51.029Z,100.00
2022-09-21T07:06:18.580Z,100.00
2022-09-21T07:11:32.563Z,100.00
2022-09-21T07:13:59.744Z,100.00
2022-09-21T07:16:26.375Z,100.00
2022-09-21T07:18:53.160Z,100.00
2022-09-21T07:21:19.677Z,100.00
2022-09-21T07:23:46.289Z,100.00
2022-09-21T07:26:13.928Z,100.00
2022-09-21T07:28:40.807Z,100.00
2022-09-21T07:31:15.204Z,100.00
2022-09-21T07:33:42.871Z,100.00
2022-09-21T07:36:11.212Z,100.00
2022-09-21T07:38:39.722Z,100.00
2022-09-21T07:41:07.204Z,100.00
2022-09-21T07:43:33.674Z,100.00
2022-09-21T07:46:02.127Z,100.00
2022-09-21T07:48:29.124Z,100.00
2022-09-21T07:51:00.841Z,100.00
2022-09-21T07:53:28.854Z,100.00
2022-09-21T07:56:02.813Z,100.00
2022-09-21T07:58:47.831Z,100.00
2022-09-21T08:01:14.835Z,100.00
2022-09-21T08:03:41.496Z,100.00
2022-09-21T08:06:09.283Z,100.00
2022-09-21T08:08:36.266Z,100.00
2022-09-21T08:11:04.764Z,100.00
2022-09-21T08:13:31.974Z,100.00
2022-09-21T08:16:00.416Z,100.00
2022-09-21T08:18:27.814Z,100.00
2022-09-21T08:21:00.841Z,100.00
2022-09-21T08:23:29.060Z,100.00
2022-09-21T08:26:05.451Z,99.38
2022-09-21T08:28:32.244Z,97.64
2022-09-21T08:31:03.485Z,97.81
2022-09-21T08:33:30.155Z,96.93
2022-09-21T08:35:59.660Z,96.03
2022-09-21T08:38:27.221Z,94.84
2022-09-21T08:40:54.260Z,95.01
2022-09-21T08:43:36.801Z,95.38
2022-09-21T08:46:11.382Z,94.44
2022-09-21T08:48:46.216Z,92.87
2022-09-21T08:51:21.933Z,92.05
2022-09-21T08:53:53.681Z,92.02
2022-09-21T08:56:22.034Z,91.51
2022-09-21T08:58:49.040Z,90.54
2022-09-21T09:01:30.825Z,90.37
2022-09-21T09:04:03.407Z,89.52
2022-09-21T09:06:49.590Z,89.78
2022-09-21T09:09:42.023Z,88.48
2022-09-21T09:12:26.465Z,87.04
2022-09-21T09:15:12.508Z,86.73
2022-09-21T09:17:57.666Z,86.03
2022-09-21T09:20:43.567Z,81.50
2022-09-21T09:23:19.551Z,79.62
2022-09-21T09:25:50.041Z,78.46
2022-09-21T09:28:33.237Z,77.72
2022-09-21T09:31:21.751Z,76.05
2022-09-21T09:33:58.957Z,77.07
2022-09-21T09:36:56.635Z,78.06
2022-09-21T09:39:19.975Z,77.20
2022-09-21T09:41:56.783Z,75.69
2022-09-21T09:44:48.071Z,75.64
2022-09-21T09:47:33.151Z,73.82
2022-09-21T09:50:20.491Z,72.00
2022-09-21T09:52:49.251Z,70.74
2022-09-21T09:55:24.325Z,70.99
2022-09-21T09:57:51.910Z,69.75
2022-09-21T10:00:20.729Z,69.82
2022-09-21T10:02:59.575Z,69.00
2022-09-21T10:05:28.868Z,69.32
2022-09-21T10:07:57.885Z,67.23
2022-09-21T10:10:40.326Z,67.34
2022-09-21T10:13:27.052Z,65.71
2022-09-21T10:16:13.995Z,63.46
2022-09-21T10:18:48.012Z,62.91
2022-09-21T10:21:24.831Z,62.00
2022-09-21T10:23:57.146Z,61.69
2022-09-21T10:26:23.814Z,60.99
2022-09-21T10:28:58.154Z,59.45
2022-09-21T10:31:27.252Z,58.33
2022-09-21T10:34:16.067Z,58.76
2022-09-21T10:36:54.692Z,58.62
2022-09-21T10:39:30.803Z,56.24
2022-09-21T10:42:07.685Z,56.26
2022-09-21T10:44:45.600Z,55.84
2022-09-21T10:47:31.055Z,54.19
2022-09-21T10:50:00.442Z,54.65
2022-09-21T10:52:38.563Z,54.64
2022-09-21T10:55:07.098Z,52.51
2022-09-21T10:57:34.531Z,52.22
2022-09-21T11:00:26.219Z,50.70
2022-09-21T11:02:55.665Z,52.26
2022-09-21T11:05:33.335Z,52.04
2022-09-21T11:08:16.457Z,51.98
2022-09-21T11:11:02.651Z,50.26
2022-09-21T11:14:12.252Z,50.05
2022-09-21T11:16:53.104Z,47.99
2022-09-21T11:19:47.626Z,49.56
2022-09-21T11:22:27.635Z,47.90
2022-09-21T11:25:28.619Z,47.59
2022-09-21T11:28:04.360Z,46.96
2022-09-21T11:30:41.708Z,46.80
2022-09-21T11:33:33.025Z,46.55
2022-09-21T11:36:13.522Z,47.50
2022-09-21T11:38:56.017Z,45.93
2022-09-21T11:42:00.995Z,44.45
2022-09-21T11:44:39.644Z,44.59
2022-09-21T11:47:12.294Z,45.15
2022-09-21T11:50:07.665Z,44.57
2022-09-21T11:53:05.719Z,44.60
2022-09-21T11:55:53.774Z,42.78
2022-09-21T11:58:45.909Z,43.29
2022-09-21T12:01:34.600Z,42.30
2022-09-21T12:04:19.776Z,43.82
2022-09-21T12:06:53.347Z,41.82
2022-09-21T12:09:32.189Z,41.70
2022-09-21T12:12:21.790Z,42.74
2022-09-21T12:15:02.182Z,42.74
2022-09-21T12:17:44.113Z,43.57
2022-09-21T12:20:19.563Z,44.13
2022-09-21T12:22:49.747Z,45.08
2022-09-21T12:25:23.735Z,44.88
2022-09-21T12:27:55.201Z,44.67
2022-09-21T12:30:24.026Z,45.30
2022-09-21T12:33:07.082Z,45.40
2022-09-21T12:35:56.954Z,45.04
2022-09-21T12:38:29.176Z,44.18
2022-09-21T12:41:36.076Z,44.55
2022-09-21T12:44:18.434Z,43.93
2022-09-21T12:47:09.112Z,44.76
2022-09-21T12:49:45.283Z,45.50
2022-09-21T12:52:21.620Z,44.73
2022-09-21T12:54:56.992Z,44.96
2022-09-21T12:58:14.225Z,45.70
2022-09-21T13:01:01.097Z,46.21
2022-09-21T13:03:56.232Z,46.87
2022-09-21T13:06:41.050Z,47.59
2022-09-21T13:09:12.780Z,48.75
2022-09-21T13:11:59.727Z,48.54
2022-09-21T13:14:36.232Z,49.08
2022-09-21T13:17:05.852Z,49.11
2022-09-21T13:19:35.304Z,49.97
2022-09-21T13:22:19.766Z,48.69
2022-09-21T13:25:03.504Z,48.58
2022-09-21T13:28:09.099Z,48.18
2022-09-21T13:30:45.513Z,47.55
2022-09-21T13:33:18.111Z,46.92
2022-09-21T13:35:50.783Z,46.46
2022-09-21T13:38:40.902Z,46.12
2022-09-21T13:41:13.112Z,45.16
2022-09-21T13:43:58.477Z,44.03
2022-09-21T13:46:36.648Z,45.76
2022-09-21T13:49:10.620Z,44.96
2022-09-21T13:52:07.350Z,43.95
2022-09-21T13:54:48.628Z,44.63
2022-09-21T13:57:27.316Z,44.52
2022-09-21T14:00:17.050Z,42.81
2022-09-21T14:02:54.894Z,43.28
2022-09-21T14:05:33.935Z,44.26
2022-09-21T14:08:05.178Z,43.79
2022-09-21T14:10:36.098Z,44.26
2022-09-21T14:13:07.356Z,44.13
2022-09-21T14:15:37.671Z,45.28
2022-09-21T14:18:19.037Z,45.18
2022-09-21T14:21:11.589Z,46.13
2022-09-21T14:23:39.254Z,46.45
2022-09-21T14:26:36.749Z,47.02
2022-09-21T14:29:44.865Z,46.56
2022-09-21T14:32:23.302Z,45.83
2022-09-21T14:34:56.240Z,45.84
2022-09-21T14:37:38.116Z,45.15
2022-09-21T14:40:17.943Z,44.56
2022-09-21T14:42:46.616Z,45.04
2022-09-21T14:45:24.961Z,45.25
2022-09-21T14:47:52.068Z,46.77
2022-09-21T14:50:30.713Z,47.63
2022-09-21T14:53:32.427Z,46.31
2022-09-21T14:56:10.103Z,46.84
2022-09-21T14:58:58.224Z,46.61
2022-09-21T15:01:37.819Z,45.99
2022-09-21T15:04:29.343Z,45.92
2022-09-21T15:07:54.701Z,46.19
2022-09-21T15:10:45.674Z,47.08
2022-09-21T15:13:36.192Z,47.05
2022-09-21T15:16:23.751Z,47.10
2022-09-21T15:18:59.990Z,47.74
2022-09-21T15:21:29.224Z,47.71
2022-09-21T15:23:57.064Z,46.97
2022-09-21T15:26:29.065Z,46.64
2022-09-21T15:29:12.539Z,46.87
2022-09-21T15:31:41.444Z,47.04
2022-09-21T15:34:10.777Z,46.73
2022-09-21T15:36:40.356Z,46.63
2022-09-21T15:39:07.422Z,47.20
2022-09-21T15:41:45.883Z,47.62
2022-09-21T15:44:16.823Z,48.51
2022-09-21T15:46:48.267Z,48.74
2022-09-21T15:49:20.722Z,48.96
2022-09-21T15:51:53.536Z,49.75
2022-09-21T15:54:23.079Z,50.23
2022-09-21T15:56:49.642Z,50.75
2022-09-21T15:59:20.885Z,49.25
2022-09-21T16:01:50.693Z,49.05
2022-09-21T16:04:23.778Z,48.60
2022-09-21T16:07:05.576Z,49.30
2022-09-21T16:09:45.532Z,49.97
2022-09-21T16:12:34.419Z,50.93
2022-09-21T16:15:07.969Z,52.02
2022-09-21T16:17:38.678Z,52.34
2022-09-21T16:20:14.777Z,52.92
2022-09-21T16:22:54.876Z,53.98
2022-09-21T16:25:24.128Z,54.20
2022-09-21T16:28:03.288Z,55.09
2022-09-21T16:30:46.182Z,55.64
2022-09-21T16:33:42.284Z,56.36
2022-09-21T16:36:33.883Z,56.62
2022-09-21T16:39:01.304Z,57.27
2022-09-21T16:41:35.546Z,58.44
2022-09-21T16:44:03.171Z,58.90
2022-09-21T16:46:31.919Z,58.58
2022-09-21T16:49:00.670Z,58.72
2022-09-21T16:51:28.470Z,59.06
2022-09-21T16:53:58.500Z,59.63
2022-09-21T16:56:25.399Z,60.14
2022-09-21T16:58:52.200Z,60.50
2022-09-21T17:01:20.660Z,60.54
2022-09-21T17:03:48.005Z,61.08
2022-09-21T17:06:19.663Z,61.29
2022-09-21T17:08:48.274Z,61.65
2022-09-21T17:11:21.706Z,62.13
2022-09-21T17:13:52.056Z,62.24
2022-09-21T17:16:20.271Z,63.50
2022-09-21T17:18:48.600Z,63.76
2022-09-21T17:21:16.875Z,64.51
2022-09-21T17:23:43.354Z,65.16
2022-09-21T17:26:16.632Z,65.52
2022-09-21T17:28:44.218Z,65.97
2022-09-21T17:31:19.034Z,66.39
2022-09-21T17:33:47.860Z,67.11
2022-09-21T17:36:15.987Z,67.09
2022-09-21T17:38:43.287Z,67.99
2022-09-21T17:41:22.010Z,68.65
2022-09-21T17:44:40.007Z,69.60
2022-09-21T17:47:14.499Z,69.83
2022-09-21T17:49:41.132Z,70.73
2022-09-21T17:52:52.531Z,71.43
2022-09-21T17:55:20.160Z,71.79
2022-09-21T17:58:02.273Z,72.61
2022-09-21T18:00:42.867Z,73.66
2022-09-21T18:03:22.139Z,73.85
2022-09-21T18:05:51.244Z,74.38
2022-09-21T18:08:18.669Z,75.33
2022-09-21T18:10:54.832Z,76.21
2022-09-21T18:13:35.756Z,76.45
2022-09-21T18:16:26.957Z,77.16
2022-09-21T18:19:14.710Z,77.90
2022-09-21T18:21:43.798Z,78.39
2022-09-21T18:24:33.570Z,78.52
2022-09-21T18:27:00.824Z,79.06
2022-09-21T18:29:40.867Z,79.12
2022-09-21T18:32:23.008Z,79.11
2022-09-21T18:34:51.142Z,79.55
2022-09-21T18:37:29.822Z,79.33
2022-09-21T18:40:24.867Z,79.19
2022-09-21T18:42:59.536Z,79.42
2022-09-21T18:45:36.773Z,79.94
2022-09-21T18:48:53.733Z,80.16
2022-09-21T18:51:45.619Z,80.91
2022-09-21T18:54:20.276Z,81.01
2022-09-21T18:56:47.453Z,80.83
2022-09-21T18:59:15.583Z,80.67
2022-09-21T19:01:44.256Z,81.13
2022-09-21T19:04:14.800Z,81.43
2022-09-21T19:07:01.594Z,82.09
2022-09-21T19:09:38.141Z,82.70
2022-09-21T19:12:23.375Z,82.43
2022-09-21T19:15:07.805Z,83.05
2022-09-21T19:18:10.956Z,83.14
2022-09-21T19:20:49.837Z,83.18
2022-09-21T19:23:31.150Z,83.46
2022-09-21T19:26:16.199Z,83.67
2022-09-21T19:28:55.498Z,83.66
2022-09-21T19:31:22.563Z,83.82
2022-09-21T19:33:56.378Z,83.71
2022-09-21T19:36:24.210Z,84.59
2022-09-21T19:38:51.316Z,84.25
2022-09-21T19:41:40.894Z,84.49
2022-09-21T19:44:50.600Z,84.63
2022-09-21T19:47:30.067Z,84.70
2022-09-21T19:50:16.257Z,84.67
2022-09-21T19:52:43.493Z,85.15
2022-09-21T19:55:41.578Z,84.79
2022-09-21T19:58:27.716Z,85.18
2022-09-21T20:00:59.636Z,85.29
2022-09-21T20:03:35.292Z,85.49
2022-09-21T20:06:05.940Z,85.67
2022-09-21T20:08:46.325Z,85.97
2022-09-21T20:11:21.276Z,86.17
2022-09-21T20:14:21.312Z,86.48
2022-09-21T20:16:54.083Z,86.60
2022-09-21T20:19:46.413Z,86.51
2022-09-21T20:22:14.901Z,86.68
2022-09-21T20:24:50.588Z,86.87
2022-09-21T20:27:37.464Z,87.11
2022-09-21T20:30:07.943Z,87.12
2022-09-21T20:32:36.423Z,87.09
2022-09-21T20:35:03.706Z,87.23
2022-09-21T20:37:30.236Z,87.33
2022-09-21T20:39:57.239Z,87.12
2022-09-21T20:42:25.091Z,87.21
2022-09-21T20:44:52.507Z,87.93
2022-09-21T20:47:20.221Z,87.64
2022-09-21T20:49:48.446Z,87.74
2022-09-21T20:52:17.305Z,87.26
2022-09-21T20:54:48.932Z,87.78
2022-09-21T20:57:17.420Z,87.80
2022-09-21T20:59:44.921Z,87.88
2022-09-21T21:02:13.282Z,87.71
2022-09-21T21:04:40.164Z,88.07
2022-09-21T21:07:07.200Z,87.82
2022-09-21T21:09:33.754Z,87.37
2022-09-21T21:12:00.438Z,87.73
2022-09-21T21:14:26.894Z,87.49
2022-09-21T21:16:53.430Z,88.06
2022-09-21T21:19:20.331Z,88.04
2022-09-21T21:21:47.270Z,87.58
2022-09-21T21:24:32.457Z,87.32
2022-09-21T21:27:03.246Z,87.81
2022-09-21T21:29:31.886Z,87.82
2022-09-21T21:31:59.699Z,88.10
2022-09-21T21:34:27.064Z,88.20
2022-09-21T21:36:53.652Z,88.10
2022-09-21T21:39:20.292Z,87.83
2022-09-21T21:41:47.228Z,88.34
2022-09-21T21:44:13.742Z,88.19
2022-09-21T21:46:40.134Z,88.17
2022-09-21T21:49:06.996Z,87.86
2022-09-21T21:51:33.689Z,88.04
2022-09-21T21:54:03.620Z,87.82
2022-09-21T21:56:30.228Z,88.31
2022-09-21T21:58:57.303Z,87.74
2022-09-21T22:01:27.035Z,87.83
2022-09-21T22:04:01.005Z,87.83
2022-09-21T22:06:29.583Z,87.53
2022-09-21T22:08:57.486Z,87.87
2022-09-21T22:11:25.758Z,87.99
2022-09-21T22:13:56.442Z,87.96
2022-09-21T22:16:24.118Z,88.24
2022-09-21T22:18:52.398Z,88.05
2022-09-21T22:21:25.422Z,88.30
2022-09-21T22:23:53.990Z,88.36
2022-09-21T22:26:21.388Z,88.62
2022-09-21T22:28:50.659Z,88.46
2022-09-21T22:31:20.578Z,88.73
2022-09-21T22:33:48.305Z,88.34
2022-09-21T22:36:17.829Z,88.09
2022-09-21T22:38:46.302Z,88.42
2022-09-21T22:41:17.254Z,88.39
2022-09-21T22:43:45.155Z,87.88
2022-09-21T22:46:12.412Z,87.69
2022-09-21T22:48:38.884Z,87.17
2022-09-21T22:51:05.949Z,87.32
2022-09-21T22:53:32.629Z,88.00
2022-09-21T22:56:10.275Z,87.49
2022-09-21T22:58:39.899Z,87.91
2022-09-21T23:01:09.091Z,87.31
2022-09-21T23:03:35.619Z,87.63
2022-09-21T23:06:02.544Z,87.64
2022-09-21T23:08:29.254Z,87.80
2022-09-21T23:11:04.393Z,87.91
2022-09-21T23:13:30.938Z,87.75
2022-09-21T23:16:05.806Z,87.65
2022-09-21T23:18:33.019Z,87.81
2022-09-21T23:21:03.948Z,87.42
2022-09-21T23:23:32.341Z,87.80
2022-09-21T23:26:06.154Z,87.67
2022-09-21T23:28:34.320Z,88.26
2022-09-21T23:31:05.406Z,88.48
2022-09-21T23:33:37.296Z,88.68
2022-09-21T23:36:05.067Z,88.74
2022-09-21T23:38:32.428Z,88.19
2022-09-21T23:41:12.906Z,88.33
2022-09-21T23:43:41.215Z,88.06
2022-09-21T23:46:09.724Z,88.16
2022-09-21T23:48:36.753Z,87.68
2022-09-21T23:51:04.438Z,87.73
2022-09-21T23:53:31.646Z,87.97
2022-09-21T23:55:58.948Z,87.68
2022-09-21T23:58:27.126Z,87.91
